sensor_id;sensor_type;location;lat;lon;timestamp;P1;durP1;ratioP1;P2;durP2;ratioP2
54823;SDS011;40724;53.196;5.980;2023-05-07T00:00:44;17.85;;;15.02;;
54823;SDS011;40724;53.196;5.980;2023-05-07T00:03:10;18.52;;;15.02;;
54823;SDS011;40724;53.196;5.980;2023-05-07T00:05:38;17.23;;;13.23;;
54823;SDS011;40724;53.196;5.980;2023-05-07T00:08:05;19.27;;;15.02;;
54823;SDS011;40724;53.196;5.980;2023-05-07T00:10:31;17.05;;;13.50;;
54823;SDS011;40724;53.196;5.980;2023-05-07T00:12:57;19.83;;;14.43;;
54823;SDS011;40724;53.196;5.980;2023-05-07T00:15:23;18.40;;;13.73;;
54823;SDS011;40724;53.196;5.980;2023-05-07T00:17:49;19.27;;;15.25;;
54823;SDS011;40724;53.196;5.980;2023-05-07T00:20:15;17.85;;;13.52;;
54823;SDS011;40724;53.196;5.980;2023-05-07T00:22:41;21.13;;;16.27;;
54823;SDS011;40724;53.196;5.980;2023-05-07T00:25:08;21.08;;;15.90;;
54823;SDS011;40724;53.196;5.980;2023-05-07T00:27:35;18.83;;;14.23;;
54823;SDS011;40724;53.196;5.980;2023-05-07T00:30:01;19.10;;;14.50;;
54823;SDS011;40724;53.196;5.980;2023-05-07T00:32:27;18.80;;;14.50;;
54823;SDS011;40724;53.196;5.980;2023-05-07T00:34:53;21.23;;;15.35;;
54823;SDS011;40724;53.196;5.980;2023-05-07T00:37:20;19.27;;;15.88;;
54823;SDS011;40724;53.196;5.980;2023-05-07T00:39:46;20.55;;;15.57;;
54823;SDS011;40724;53.196;5.980;2023-05-07T00:42:12;21.73;;;14.45;;
54823;SDS011;40724;53.196;5.980;2023-05-07T00:44:40;18.02;;;14.93;;
54823;SDS011;40724;53.196;5.980;2023-05-07T00:47:06;19.27;;;15.80;;
54823;SDS011;40724;53.196;5.980;2023-05-07T00:49:39;20.63;;;14.90;;
54823;SDS011;40724;53.196;5.980;2023-05-07T00:52:07;20.58;;;15.27;;
54823;SDS011;40724;53.196;5.980;2023-05-07T00:54:33;18.80;;;14.68;;
54823;SDS011;40724;53.196;5.980;2023-05-07T00:57:00;18.15;;;15.50;;
54823;SDS011;40724;53.196;5.980;2023-05-07T00:59:27;21.20;;;16.55;;
54823;SDS011;40724;53.196;5.980;2023-05-07T01:01:53;20.98;;;15.38;;
54823;SDS011;40724;53.196;5.980;2023-05-07T01:04:21;20.70;;;15.63;;
54823;SDS011;40724;53.196;5.980;2023-05-07T01:06:47;21.15;;;16.63;;
54823;SDS011;40724;53.196;5.980;2023-05-07T01:09:14;21.67;;;16.45;;
54823;SDS011;40724;53.196;5.980;2023-05-07T01:11:40;21.38;;;15.20;;
54823;SDS011;40724;53.196;5.980;2023-05-07T01:14:06;20.77;;;14.35;;
54823;SDS011;40724;53.196;5.980;2023-05-07T01:16:33;22.20;;;14.90;;
54823;SDS011;40724;53.196;5.980;2023-05-07T01:18:59;22.65;;;16.45;;
54823;SDS011;40724;53.196;5.980;2023-05-07T01:21:26;16.85;;;14.98;;
54823;SDS011;40724;53.196;5.980;2023-05-07T01:23:52;21.23;;;14.98;;
54823;SDS011;40724;53.196;5.980;2023-05-07T01:26:20;20.25;;;16.00;;
54823;SDS011;40724;53.196;5.980;2023-05-07T01:28:47;20.70;;;16.13;;
54823;SDS011;40724;53.196;5.980;2023-05-07T01:31:13;19.08;;;15.40;;
54823;SDS011;40724;53.196;5.980;2023-05-07T01:33:40;22.45;;;15.15;;
54823;SDS011;40724;53.196;5.980;2023-05-07T01:36:07;22.27;;;17.80;;
54823;SDS011;40724;53.196;5.980;2023-05-07T01:38:33;22.10;;;16.73;;
54823;SDS011;40724;53.196;5.980;2023-05-07T01:41:01;23.55;;;17.35;;
54823;SDS011;40724;53.196;5.980;2023-05-07T01:43:27;20.13;;;16.60;;
54823;SDS011;40724;53.196;5.980;2023-05-07T01:45:54;20.23;;;16.20;;
54823;SDS011;40724;53.196;5.980;2023-05-07T01:48:20;23.90;;;17.35;;
54823;SDS011;40724;53.196;5.980;2023-05-07T01:50:47;22.63;;;17.15;;
54823;SDS011;40724;53.196;5.980;2023-05-07T01:53:13;23.00;;;17.90;;
54823;SDS011;40724;53.196;5.980;2023-05-07T01:55:40;20.80;;;16.65;;
54823;SDS011;40724;53.196;5.980;2023-05-07T01:58:06;23.55;;;17.25;;
54823;SDS011;40724;53.196;5.980;2023-05-07T02:00:32;21.45;;;17.92;;
54823;SDS011;40724;53.196;5.980;2023-05-07T02:02:58;23.50;;;17.83;;
54823;SDS011;40724;53.196;5.980;2023-05-07T02:05:24;21.13;;;16.98;;
54823;SDS011;40724;53.196;5.980;2023-05-07T02:07:50;21.83;;;17.30;;
54823;SDS011;40724;53.196;5.980;2023-05-07T02:10:17;21.05;;;17.52;;
54823;SDS011;40724;53.196;5.980;2023-05-07T02:12:43;24.95;;;18.42;;
54823;SDS011;40724;53.196;5.980;2023-05-07T02:15:09;23.15;;;16.88;;
54823;SDS011;40724;53.196;5.980;2023-05-07T02:17:39;22.63;;;18.25;;
54823;SDS011;40724;53.196;5.980;2023-05-07T02:20:05;19.95;;;17.05;;
54823;SDS011;40724;53.196;5.980;2023-05-07T02:22:38;25.90;;;19.35;;
54823;SDS011;40724;53.196;5.980;2023-05-07T02:25:04;21.08;;;17.45;;
54823;SDS011;40724;53.196;5.980;2023-05-07T02:27:30;22.80;;;17.80;;
54823;SDS011;40724;53.196;5.980;2023-05-07T02:29:56;25.35;;;19.25;;
54823;SDS011;40724;53.196;5.980;2023-05-07T02:32:22;22.73;;;18.02;;
54823;SDS011;40724;53.196;5.980;2023-05-07T02:34:50;22.10;;;19.27;;
54823;SDS011;40724;53.196;5.980;2023-05-07T02:37:17;22.90;;;18.48;;
54823;SDS011;40724;53.196;5.980;2023-05-07T02:39:43;23.88;;;18.73;;
54823;SDS011;40724;53.196;5.980;2023-05-07T02:42:09;26.08;;;17.52;;
54823;SDS011;40724;53.196;5.980;2023-05-07T02:44:35;24.13;;;19.10;;
54823;SDS011;40724;53.196;5.980;2023-05-07T02:47:01;24.67;;;19.38;;
54823;SDS011;40724;53.196;5.980;2023-05-07T02:49:28;23.90;;;18.27;;
54823;SDS011;40724;53.196;5.980;2023-05-07T02:51:54;23.05;;;19.40;;
54823;SDS011;40724;53.196;5.980;2023-05-07T02:54:20;23.30;;;18.48;;
54823;SDS011;40724;53.196;5.980;2023-05-07T02:56:47;23.85;;;17.30;;
54823;SDS011;40724;53.196;5.980;2023-05-07T02:59:13;22.35;;;17.63;;
54823;SDS011;40724;53.196;5.980;2023-05-07T03:01:39;25.30;;;18.77;;
54823;SDS011;40724;53.196;5.980;2023-05-07T03:04:06;21.80;;;17.05;;
54823;SDS011;40724;53.196;5.980;2023-05-07T03:06:32;24.52;;;19.00;;
54823;SDS011;40724;53.196;5.980;2023-05-07T03:08:58;27.90;;;20.17;;
54823;SDS011;40724;53.196;5.980;2023-05-07T03:11:25;25.52;;;19.52;;
54823;SDS011;40724;53.196;5.980;2023-05-07T03:13:51;21.77;;;18.38;;
54823;SDS011;40724;53.196;5.980;2023-05-07T03:16:17;23.77;;;18.45;;
54823;SDS011;40724;53.196;5.980;2023-05-07T03:18:43;23.73;;;18.95;;
54823;SDS011;40724;53.196;5.980;2023-05-07T03:21:09;26.08;;;19.75;;
54823;SDS011;40724;53.196;5.980;2023-05-07T03:23:35;23.17;;;19.45;;
54823;SDS011;40724;53.196;5.980;2023-05-07T03:26:02;24.80;;;18.80;;
54823;SDS011;40724;53.196;5.980;2023-05-07T03:28:28;24.17;;;18.08;;
54823;SDS011;40724;53.196;5.980;2023-05-07T03:30:54;25.17;;;18.63;;
54823;SDS011;40724;53.196;5.980;2023-05-07T03:33:20;23.92;;;18.38;;
54823;SDS011;40724;53.196;5.980;2023-05-07T03:35:46;26.77;;;20.70;;
54823;SDS011;40724;53.196;5.980;2023-05-07T03:38:12;23.52;;;19.02;;
54823;SDS011;40724;53.196;5.980;2023-05-07T03:40:38;24.92;;;19.98;;
54823;SDS011;40724;53.196;5.980;2023-05-07T03:43:05;32.47;;;22.75;;
54823;SDS011;40724;53.196;5.980;2023-05-07T03:45:31;25.00;;;19.92;;
54823;SDS011;40724;53.196;5.980;2023-05-07T03:47:57;26.48;;;20.92;;
54823;SDS011;40724;53.196;5.980;2023-05-07T03:50:23;26.17;;;21.05;;
54823;SDS011;40724;53.196;5.980;2023-05-07T03:52:49;26.48;;;20.95;;
54823;SDS011;40724;53.196;5.980;2023-05-07T03:55:15;33.63;;;22.33;;
54823;SDS011;40724;53.196;5.980;2023-05-07T03:57:41;30.13;;;21.70;;
54823;SDS011;40724;53.196;5.980;2023-05-07T04:00:08;30.00;;;21.75;;
54823;SDS011;40724;53.196;5.980;2023-05-07T04:02:34;28.13;;;21.60;;
54823;SDS011;40724;53.196;5.980;2023-05-07T04:05:00;27.73;;;20.13;;
54823;SDS011;40724;53.196;5.980;2023-05-07T04:07:26;25.90;;;19.00;;
54823;SDS011;40724;53.196;5.980;2023-05-07T04:09:52;30.77;;;22.73;;
54823;SDS011;40724;53.196;5.980;2023-05-07T04:12:18;30.48;;;21.42;;
54823;SDS011;40724;53.196;5.980;2023-05-07T04:14:45;31.08;;;22.33;;
54823;SDS011;40724;53.196;5.980;2023-05-07T04:17:11;30.45;;;23.38;;
54823;SDS011;40724;53.196;5.980;2023-05-07T04:19:37;33.08;;;23.88;;
54823;SDS011;40724;53.196;5.980;2023-05-07T04:22:03;32.83;;;22.60;;
54823;SDS011;40724;53.196;5.980;2023-05-07T04:24:32;34.03;;;24.42;;
54823;SDS011;40724;53.196;5.980;2023-05-07T04:26:58;27.75;;;22.80;;
54823;SDS011;40724;53.196;5.980;2023-05-07T04:29:24;30.50;;;22.60;;
54823;SDS011;40724;53.196;5.980;2023-05-07T04:31:50;36.03;;;24.88;;
54823;SDS011;40724;53.196;5.980;2023-05-07T04:34:16;27.25;;;21.67;;
54823;SDS011;40724;53.196;5.980;2023-05-07T04:36:43;31.70;;;23.40;;
54823;SDS011;40724;53.196;5.980;2023-05-07T04:39:09;34.10;;;25.63;;
54823;SDS011;40724;53.196;5.980;2023-05-07T04:41:36;30.52;;;23.55;;
54823;SDS011;40724;53.196;5.980;2023-05-07T04:44:02;31.25;;;23.30;;
54823;SDS011;40724;53.196;5.980;2023-05-07T04:46:29;32.10;;;23.63;;
54823;SDS011;40724;53.196;5.980;2023-05-07T04:48:55;33.38;;;24.08;;
54823;SDS011;40724;53.196;5.980;2023-05-07T04:51:21;37.88;;;24.20;;
54823;SDS011;40724;53.196;5.980;2023-05-07T04:53:48;33.67;;;25.60;;
54823;SDS011;40724;53.196;5.980;2023-05-07T04:56:14;34.05;;;24.20;;
54823;SDS011;40724;53.196;5.980;2023-05-07T04:58:40;37.70;;;25.60;;
54823;SDS011;40724;53.196;5.980;2023-05-07T05:01:06;38.90;;;26.10;;
54823;SDS011;40724;53.196;5.980;2023-05-07T05:03:32;39.78;;;27.58;;
54823;SDS011;40724;53.196;5.980;2023-05-07T05:05:59;35.75;;;26.02;;
54823;SDS011;40724;53.196;5.980;2023-05-07T05:08:25;36.00;;;25.13;;
54823;SDS011;40724;53.196;5.980;2023-05-07T05:10:51;32.53;;;23.48;;
54823;SDS011;40724;53.196;5.980;2023-05-07T05:13:17;32.28;;;25.90;;
54823;SDS011;40724;53.196;5.980;2023-05-07T05:15:43;34.25;;;23.33;;
54823;SDS011;40724;53.196;5.980;2023-05-07T05:18:10;36.78;;;25.20;;
54823;SDS011;40724;53.196;5.980;2023-05-07T05:20:36;36.28;;;25.35;;
54823;SDS011;40724;53.196;5.980;2023-05-07T05:23:02;40.45;;;25.25;;
54823;SDS011;40724;53.196;5.980;2023-05-07T05:25:29;35.65;;;25.13;;
54823;SDS011;40724;53.196;5.980;2023-05-07T05:27:55;35.88;;;25.17;;
54823;SDS011;40724;53.196;5.980;2023-05-07T05:30:21;35.55;;;25.75;;
54823;SDS011;40724;53.196;5.980;2023-05-07T05:32:47;40.67;;;26.75;;
54823;SDS011;40724;53.196;5.980;2023-05-07T05:35:13;40.92;;;27.00;;
54823;SDS011;40724;53.196;5.980;2023-05-07T05:37:40;35.80;;;24.15;;
54823;SDS011;40724;53.196;5.980;2023-05-07T05:40:06;44.72;;;26.38;;
54823;SDS011;40724;53.196;5.980;2023-05-07T05:42:33;37.30;;;26.55;;
54823;SDS011;40724;53.196;5.980;2023-05-07T05:44:59;35.75;;;24.05;;
54823;SDS011;40724;53.196;5.980;2023-05-07T05:47:25;35.58;;;24.98;;
54823;SDS011;40724;53.196;5.980;2023-05-07T05:49:51;41.83;;;26.77;;
54823;SDS011;40724;53.196;5.980;2023-05-07T05:52:17;36.03;;;24.95;;
54823;SDS011;40724;53.196;5.980;2023-05-07T05:54:43;30.10;;;23.50;;
54823;SDS011;40724;53.196;5.980;2023-05-07T05:57:09;34.53;;;23.42;;
54823;SDS011;40724;53.196;5.980;2023-05-07T05:59:35;34.42;;;24.98;;
54823;SDS011;40724;53.196;5.980;2023-05-07T06:02:02;39.35;;;25.08;;
54823;SDS011;40724;53.196;5.980;2023-05-07T06:04:28;31.27;;;22.48;;
54823;SDS011;40724;53.196;5.980;2023-05-07T06:06:54;34.42;;;24.77;;
54823;SDS011;40724;53.196;5.980;2023-05-07T06:09:21;30.88;;;24.15;;
54823;SDS011;40724;53.196;5.980;2023-05-07T06:11:47;34.42;;;24.95;;
54823;SDS011;40724;53.196;5.980;2023-05-07T06:14:14;35.35;;;24.85;;
54823;SDS011;40724;53.196;5.980;2023-05-07T06:16:40;30.35;;;22.10;;
54823;SDS011;40724;53.196;5.980;2023-05-07T06:19:07;37.47;;;23.98;;
54823;SDS011;40724;53.196;5.980;2023-05-07T06:21:33;30.45;;;23.52;;
54823;SDS011;40724;53.196;5.980;2023-05-07T06:23:59;28.35;;;20.50;;
54823;SDS011;40724;53.196;5.980;2023-05-07T06:26:25;36.95;;;22.42;;
54823;SDS011;40724;53.196;5.980;2023-05-07T06:28:51;28.65;;;20.35;;
54823;SDS011;40724;53.196;5.980;2023-05-07T06:31:18;32.05;;;22.52;;
54823;SDS011;40724;53.196;5.980;2023-05-07T06:33:48;29.55;;;23.05;;
54823;SDS011;40724;53.196;5.980;2023-05-07T06:36:15;27.92;;;22.20;;
54823;SDS011;40724;53.196;5.980;2023-05-07T06:38:41;33.47;;;22.73;;
54823;SDS011;40724;53.196;5.980;2023-05-07T06:41:07;28.10;;;22.15;;
54823;SDS011;40724;53.196;5.980;2023-05-07T06:43:33;24.77;;;19.52;;
54823;SDS011;40724;53.196;5.980;2023-05-07T06:45:59;33.15;;;21.88;;
54823;SDS011;40724;53.196;5.980;2023-05-07T06:48:25;27.00;;;21.33;;
54823;SDS011;40724;53.196;5.980;2023-05-07T06:50:52;31.42;;;21.70;;
54823;SDS011;40724;53.196;5.980;2023-05-07T06:53:20;29.33;;;22.55;;
54823;SDS011;40724;53.196;5.980;2023-05-07T06:55:46;28.13;;;19.83;;
54823;SDS011;40724;53.196;5.980;2023-05-07T06:58:12;32.88;;;22.45;;
54823;SDS011;40724;53.196;5.980;2023-05-07T07:00:38;29.10;;;21.77;;
54823;SDS011;40724;53.196;5.980;2023-05-07T07:03:06;29.15;;;21.52;;
54823;SDS011;40724;53.196;5.980;2023-05-07T07:05:32;26.15;;;19.65;;
54823;SDS011;40724;53.196;5.980;2023-05-07T07:07:58;24.27;;;18.70;;
54823;SDS011;40724;53.196;5.980;2023-05-07T07:10:24;29.75;;;22.42;;
54823;SDS011;40724;53.196;5.980;2023-05-07T07:12:50;29.05;;;20.42;;
54823;SDS011;40724;53.196;5.980;2023-05-07T07:15:17;38.25;;;25.70;;
54823;SDS011;40724;53.196;5.980;2023-05-07T07:17:45;30.77;;;23.83;;
54823;SDS011;40724;53.196;5.980;2023-05-07T07:20:11;25.25;;;20.77;;
54823;SDS011;40724;53.196;5.980;2023-05-07T07:22:38;26.45;;;20.20;;
54823;SDS011;40724;53.196;5.980;2023-05-07T07:25:04;32.40;;;23.25;;
54823;SDS011;40724;53.196;5.980;2023-05-07T07:27:30;24.75;;;18.83;;
54823;SDS011;40724;53.196;5.980;2023-05-07T07:29:56;24.00;;;20.60;;
54823;SDS011;40724;53.196;5.980;2023-05-07T07:32:22;28.33;;;20.80;;
54823;SDS011;40724;53.196;5.980;2023-05-07T07:34:49;26.63;;;20.80;;
54823;SDS011;40724;53.196;5.980;2023-05-07T07:37:15;27.63;;;20.60;;
54823;SDS011;40724;53.196;5.980;2023-05-07T07:39:41;27.48;;;18.88;;
54823;SDS011;40724;53.196;5.980;2023-05-07T07:42:07;29.25;;;21.02;;
54823;SDS011;40724;53.196;5.980;2023-05-07T07:44:33;26.58;;;19.27;;
54823;SDS011;40724;53.196;5.980;2023-05-07T07:46:59;28.25;;;19.85;;
54823;SDS011;40724;53.196;5.980;2023-05-07T07:49:26;24.85;;;19.35;;
54823;SDS011;40724;53.196;5.980;2023-05-07T07:51:52;29.10;;;21.17;;
54823;SDS011;40724;53.196;5.980;2023-05-07T07:54:18;28.15;;;19.13;;
54823;SDS011;40724;53.196;5.980;2023-05-07T07:56:44;26.30;;;19.58;;
54823;SDS011;40724;53.196;5.980;2023-05-07T07:59:10;31.52;;;19.73;;
54823;SDS011;40724;53.196;5.980;2023-05-07T08:01:38;30.17;;;19.75;;
54823;SDS011;40724;53.196;5.980;2023-05-07T08:04:05;25.50;;;20.33;;
54823;SDS011;40724;53.196;5.980;2023-05-07T08:06:31;23.58;;;18.30;;
54823;SDS011;40724;53.196;5.980;2023-05-07T08:08:57;30.95;;;22.15;;
54823;SDS011;40724;53.196;5.980;2023-05-07T08:11:23;24.30;;;19.33;;
54823;SDS011;40724;53.196;5.980;2023-05-07T08:13:50;28.90;;;21.33;;
54823;SDS011;40724;53.196;5.980;2023-05-07T08:16:16;27.63;;;19.25;;
54823;SDS011;40724;53.196;5.980;2023-05-07T08:18:42;29.75;;;20.73;;
54823;SDS011;40724;53.196;5.980;2023-05-07T08:21:08;26.60;;;20.05;;
54823;SDS011;40724;53.196;5.980;2023-05-07T08:23:35;25.15;;;20.17;;
54823;SDS011;40724;53.196;5.980;2023-05-07T08:26:01;26.92;;;20.15;;
54823;SDS011;40724;53.196;5.980;2023-05-07T08:28:27;25.25;;;18.55;;
54823;SDS011;40724;53.196;5.980;2023-05-07T08:30:53;30.25;;;20.70;;
54823;SDS011;40724;53.196;5.980;2023-05-07T08:33:21;25.60;;;19.63;;
54823;SDS011;40724;53.196;5.980;2023-05-07T08:35:47;28.05;;;20.58;;
54823;SDS011;40724;53.196;5.980;2023-05-07T08:38:13;23.17;;;18.52;;
54823;SDS011;40724;53.196;5.980;2023-05-07T08:40:39;29.02;;;21.48;;
54823;SDS011;40724;53.196;5.980;2023-05-07T08:43:06;21.98;;;18.63;;
54823;SDS011;40724;53.196;5.980;2023-05-07T08:45:33;26.17;;;20.10;;
54823;SDS011;40724;53.196;5.980;2023-05-07T08:47:59;24.80;;;18.60;;
54823;SDS011;40724;53.196;5.980;2023-05-07T08:50:26;23.63;;;19.83;;
54823;SDS011;40724;53.196;5.980;2023-05-07T08:52:52;24.48;;;19.55;;
54823;SDS011;40724;53.196;5.980;2023-05-07T08:55:18;29.58;;;19.83;;
54823;SDS011;40724;53.196;5.980;2023-05-07T08:57:44;25.65;;;19.73;;
54823;SDS011;40724;53.196;5.980;2023-05-07T09:00:12;24.55;;;18.90;;
54823;SDS011;40724;53.196;5.980;2023-05-07T09:02:38;27.35;;;20.38;;
54823;SDS011;40724;53.196;5.980;2023-05-07T09:05:04;26.63;;;20.77;;
54823;SDS011;40724;53.196;5.980;2023-05-07T09:07:31;27.35;;;21.02;;
54823;SDS011;40724;53.196;5.980;2023-05-07T09:09:57;27.63;;;20.13;;
54823;SDS011;40724;53.196;5.980;2023-05-07T09:12:24;29.05;;;22.08;;
54823;SDS011;40724;53.196;5.980;2023-05-07T09:14:50;26.48;;;20.15;;
54823;SDS011;40724;53.196;5.980;2023-05-07T09:17:16;24.83;;;20.10;;
54823;SDS011;40724;53.196;5.980;2023-05-07T09:19:43;24.70;;;18.50;;
54823;SDS011;40724;53.196;5.980;2023-05-07T09:22:11;29.40;;;20.42;;
54823;SDS011;40724;53.196;5.980;2023-05-07T09:24:37;27.42;;;18.83;;
54823;SDS011;40724;53.196;5.980;2023-05-07T09:27:04;27.02;;;19.60;;
54823;SDS011;40724;53.196;5.980;2023-05-07T09:29:30;29.40;;;21.02;;
54823;SDS011;40724;53.196;5.980;2023-05-07T09:32:03;29.15;;;20.15;;
54823;SDS011;40724;53.196;5.980;2023-05-07T09:34:29;26.58;;;20.80;;
54823;SDS011;40724;53.196;5.980;2023-05-07T09:36:56;28.10;;;19.73;;
54823;SDS011;40724;53.196;5.980;2023-05-07T09:39:23;25.95;;;20.48;;
54823;SDS011;40724;53.196;5.980;2023-05-07T09:41:49;27.67;;;20.50;;
54823;SDS011;40724;53.196;5.980;2023-05-07T09:44:18;26.20;;;20.50;;
54823;SDS011;40724;53.196;5.980;2023-05-07T09:46:44;28.40;;;20.20;;
54823;SDS011;40724;53.196;5.980;2023-05-07T09:49:21;25.85;;;20.52;;
54823;SDS011;40724;53.196;5.980;2023-05-07T09:51:51;30.75;;;22.60;;
54823;SDS011;40724;53.196;5.980;2023-05-07T09:54:18;30.63;;;22.17;;
54823;SDS011;40724;53.196;5.980;2023-05-07T09:56:44;27.33;;;22.27;;
54823;SDS011;40724;53.196;5.980;2023-05-07T09:59:14;27.88;;;19.92;;
54823;SDS011;40724;53.196;5.980;2023-05-07T10:01:41;27.65;;;21.15;;
54823;SDS011;40724;53.196;5.980;2023-05-07T10:04:08;24.35;;;20.85;;
54823;SDS011;40724;53.196;5.980;2023-05-07T10:06:34;28.60;;;21.15;;
54823;SDS011;40724;53.196;5.980;2023-05-07T10:09:01;28.60;;;21.90;;
54823;SDS011;40724;53.196;5.980;2023-05-07T10:11:28;26.30;;;21.58;;
54823;SDS011;40724;53.196;5.980;2023-05-07T10:13:54;28.52;;;21.00;;
54823;SDS011;40724;53.196;5.980;2023-05-07T10:16:21;29.80;;;21.75;;
54823;SDS011;40724;53.196;5.980;2023-05-07T10:18:47;27.92;;;22.40;;
54823;SDS011;40724;53.196;5.980;2023-05-07T10:21:17;25.17;;;20.65;;
54823;SDS011;40724;53.196;5.980;2023-05-07T10:23:50;28.23;;;21.05;;
54823;SDS011;40724;53.196;5.980;2023-05-07T10:26:17;33.22;;;21.73;;
54823;SDS011;40724;53.196;5.980;2023-05-07T10:28:46;26.90;;;19.35;;
54823;SDS011;40724;53.196;5.980;2023-05-07T10:31:26;28.40;;;20.60;;
54823;SDS011;40724;53.196;5.980;2023-05-07T10:34:11;25.17;;;21.13;;
54823;SDS011;40724;53.196;5.980;2023-05-07T10:36:41;26.30;;;21.08;;
54823;SDS011;40724;53.196;5.980;2023-05-07T10:39:07;27.30;;;20.15;;
54823;SDS011;40724;53.196;5.980;2023-05-07T10:41:33;29.17;;;20.40;;
54823;SDS011;40724;53.196;5.980;2023-05-07T10:43:59;26.60;;;19.67;;
54823;SDS011;40724;53.196;5.980;2023-05-07T10:46:27;27.67;;;20.90;;
54823;SDS011;40724;53.196;5.980;2023-05-07T10:51:30;25.02;;;20.00;;
54823;SDS011;40724;53.196;5.980;2023-05-07T10:56:42;25.30;;;19.20;;
54823;SDS011;40724;53.196;5.980;2023-05-07T11:02:02;31.17;;;19.80;;
54823;SDS011;40724;53.196;5.980;2023-05-07T11:04:29;23.52;;;18.95;;
54823;SDS011;40724;53.196;5.980;2023-05-07T11:12:16;21.90;;;18.77;;
54823;SDS011;40724;53.196;5.980;2023-05-07T11:14:43;25.83;;;20.00;;
54823;SDS011;40724;53.196;5.980;2023-05-07T11:17:10;26.75;;;20.25;;
54823;SDS011;40724;53.196;5.980;2023-05-07T11:19:55;26.33;;;19.88;;
54823;SDS011;40724;53.196;5.980;2023-05-07T11:22:40;26.48;;;20.15;;
54823;SDS011;40724;53.196;5.980;2023-05-07T11:25:06;26.30;;;20.25;;
54823;SDS011;40724;53.196;5.980;2023-05-07T11:27:32;27.08;;;18.92;;
54823;SDS011;40724;53.196;5.980;2023-05-07T11:29:59;25.52;;;19.30;;
54823;SDS011;40724;53.196;5.980;2023-05-07T11:32:29;22.58;;;17.83;;
54823;SDS011;40724;53.196;5.980;2023-05-07T11:34:56;25.35;;;20.27;;
54823;SDS011;40724;53.196;5.980;2023-05-07T11:37:23;24.85;;;19.05;;
54823;SDS011;40724;53.196;5.980;2023-05-07T11:39:49;21.42;;;17.85;;
54823;SDS011;40724;53.196;5.980;2023-05-07T11:42:32;24.15;;;18.38;;
54823;SDS011;40724;53.196;5.980;2023-05-07T11:44:59;25.08;;;17.83;;
54823;SDS011;40724;53.196;5.980;2023-05-07T11:47:25;24.90;;;17.90;;
54823;SDS011;40724;53.196;5.980;2023-05-07T11:49:52;23.90;;;18.42;;
54823;SDS011;40724;53.196;5.980;2023-05-07T11:52:19;21.10;;;16.77;;
54823;SDS011;40724;53.196;5.980;2023-05-07T11:54:55;23.05;;;18.15;;
54823;SDS011;40724;53.196;5.980;2023-05-07T11:57:22;25.30;;;17.67;;
54823;SDS011;40724;53.196;5.980;2023-05-07T11:59:52;21.75;;;17.92;;
54823;SDS011;40724;53.196;5.980;2023-05-07T12:02:18;23.30;;;17.40;;
54823;SDS011;40724;53.196;5.980;2023-05-07T12:04:44;20.85;;;17.92;;
54823;SDS011;40724;53.196;5.980;2023-05-07T12:07:11;22.90;;;18.48;;
54823;SDS011;40724;53.196;5.980;2023-05-07T12:09:38;23.10;;;16.40;;
54823;SDS011;40724;53.196;5.980;2023-05-07T12:12:05;22.13;;;17.50;;
54823;SDS011;40724;53.196;5.980;2023-05-07T12:14:31;20.60;;;16.58;;
54823;SDS011;40724;53.196;5.980;2023-05-07T12:16:58;19.20;;;16.13;;
54823;SDS011;40724;53.196;5.980;2023-05-07T12:19:27;20.70;;;16.20;;
54823;SDS011;40724;53.196;5.980;2023-05-07T12:21:54;21.90;;;16.27;;
54823;SDS011;40724;53.196;5.980;2023-05-07T12:24:21;19.33;;;15.70;;
54823;SDS011;40724;53.196;5.980;2023-05-07T12:26:48;20.50;;;16.35;;
54823;SDS011;40724;53.196;5.980;2023-05-07T12:29:14;19.00;;;16.75;;
54823;SDS011;40724;53.196;5.980;2023-05-07T12:31:43;21.58;;;15.82;;
54823;SDS011;40724;53.196;5.980;2023-05-07T12:34:10;25.08;;;17.55;;
54823;SDS011;40724;53.196;5.980;2023-05-07T12:36:37;18.75;;;15.27;;
54823;SDS011;40724;53.196;5.980;2023-05-07T12:39:07;18.25;;;16.10;;
54823;SDS011;40724;53.196;5.980;2023-05-07T12:41:43;18.85;;;16.05;;
54823;SDS011;40724;53.196;5.980;2023-05-07T12:44:18;20.13;;;17.67;;
54823;SDS011;40724;53.196;5.980;2023-05-07T12:46:46;22.20;;;16.92;;
54823;SDS011;40724;53.196;5.980;2023-05-07T12:49:12;20.92;;;16.40;;
54823;SDS011;40724;53.196;5.980;2023-05-07T12:51:37;17.38;;;15.32;;
54823;SDS011;40724;53.196;5.980;2023-05-07T12:54:03;17.88;;;14.98;;
54823;SDS011;40724;53.196;5.980;2023-05-07T12:56:35;18.20;;;14.10;;
54823;SDS011;40724;53.196;5.980;2023-05-07T12:59:01;19.15;;;15.25;;
54823;SDS011;40724;53.196;5.980;2023-05-07T13:01:30;18.48;;;16.13;;
54823;SDS011;40724;53.196;5.980;2023-05-07T13:04:00;20.42;;;15.57;;
54823;SDS011;40724;53.196;5.980;2023-05-07T13:06:29;19.38;;;16.00;;
54823;SDS011;40724;53.196;5.980;2023-05-07T13:08:56;21.17;;;14.95;;
54823;SDS011;40724;53.196;5.980;2023-05-07T13:11:21;18.42;;;15.35;;
54823;SDS011;40724;53.196;5.980;2023-05-07T13:13:48;20.00;;;16.13;;
54823;SDS011;40724;53.196;5.980;2023-05-07T13:16:13;18.58;;;16.00;;
54823;SDS011;40724;53.196;5.980;2023-05-07T13:18:39;18.95;;;15.55;;
54823;SDS011;40724;53.196;5.980;2023-05-07T13:21:06;18.38;;;15.90;;
54823;SDS011;40724;53.196;5.980;2023-05-07T13:23:31;19.08;;;14.98;;
54823;SDS011;40724;53.196;5.980;2023-05-07T13:25:57;17.02;;;14.50;;
54823;SDS011;40724;53.196;5.980;2023-05-07T13:28:23;18.35;;;15.32;;
54823;SDS011;40724;53.196;5.980;2023-05-07T13:30:50;16.88;;;15.00;;
54823;SDS011;40724;53.196;5.980;2023-05-07T13:33:17;17.67;;;14.07;;
54823;SDS011;40724;53.196;5.980;2023-05-07T13:35:44;16.58;;;13.95;;
54823;SDS011;40724;53.196;5.980;2023-05-07T13:38:10;18.42;;;15.15;;
54823;SDS011;40724;53.196;5.980;2023-05-07T13:40:35;17.92;;;15.65;;
54823;SDS011;40724;53.196;5.980;2023-05-07T13:43:01;15.98;;;14.13;;
54823;SDS011;40724;53.196;5.980;2023-05-07T13:45:27;15.80;;;13.82;;
54823;SDS011;40724;53.196;5.980;2023-05-07T13:47:54;17.45;;;15.20;;
54823;SDS011;40724;53.196;5.980;2023-05-07T13:50:21;17.95;;;14.70;;
54823;SDS011;40724;53.196;5.980;2023-05-07T13:52:47;16.92;;;14.98;;
54823;SDS011;40724;53.196;5.980;2023-05-07T13:55:18;17.98;;;13.77;;
54823;SDS011;40724;53.196;5.980;2023-05-07T13:57:45;16.02;;;14.32;;
54823;SDS011;40724;53.196;5.980;2023-05-07T14:00:11;15.35;;;13.10;;
54823;SDS011;40724;53.196;5.980;2023-05-07T14:02:37;17.23;;;14.00;;
54823;SDS011;40724;53.196;5.980;2023-05-07T14:05:04;15.90;;;14.23;;
54823;SDS011;40724;53.196;5.980;2023-05-07T14:07:30;15.88;;;13.60;;
54823;SDS011;40724;53.196;5.980;2023-05-07T14:09:56;17.33;;;15.50;;
54823;SDS011;40724;53.196;5.980;2023-05-07T14:12:22;17.58;;;15.48;;
54823;SDS011;40724;53.196;5.980;2023-05-07T14:14:48;16.67;;;14.88;;
54823;SDS011;40724;53.196;5.980;2023-05-07T14:17:15;17.48;;;14.40;;
54823;SDS011;40724;53.196;5.980;2023-05-07T14:19:42;18.02;;;14.40;;
54823;SDS011;40724;53.196;5.980;2023-05-07T14:22:08;17.95;;;14.13;;
54823;SDS011;40724;53.196;5.980;2023-05-07T14:24:34;16.30;;;14.38;;
54823;SDS011;40724;53.196;5.980;2023-05-07T14:27:00;14.75;;;13.27;;
54823;SDS011;40724;53.196;5.980;2023-05-07T14:29:26;15.95;;;13.38;;
54823;SDS011;40724;53.196;5.980;2023-05-07T14:31:52;16.90;;;13.45;;